createdAt,value
2019-06-26T19:21:43.833Z,31.07
2019-06-26T19:24:47.711Z,30.99
2019-06-26T19:27:51.340Z,30.91
2019-06-26T19:30:55.079Z,30.92
2019-06-26T19:33:58.782Z,30.89
2019-06-26T19:37:02.479Z,30.72
2019-06-26T19:40:08.544Z,30.65
2019-06-26T19:43:13.302Z,30.67
2019-06-26T19:46:20.088Z,30.56
2019-06-26T19:49:23.734Z,30.56
2019-06-26T19:52:32.093Z,30.40
2019-06-26T19:55:35.909Z,30.42
2019-06-26T19:58:45.239Z,30.26
2019-06-26T20:01:54.688Z,30.16
2019-06-26T20:04:58.457Z,30.06
2019-06-26T20:08:02.149Z,29.99
2019-06-26T20:11:05.973Z,29.87
2019-06-26T20:14:09.660Z,29.85
2019-06-26T20:17:20.350Z,29.73
2019-06-26T20:20:24.042Z,29.64
2019-06-26T20:23:27.888Z,29.54
2019-06-26T20:26:31.639Z,29.49
2019-06-26T20:29:35.616Z,29.37
2019-06-26T20:32:39.344Z,29.28
2019-06-26T20:35:44.585Z,29.26
2019-06-26T20:38:48.277Z,29.17
2019-06-26T20:41:51.935Z,29.05
2019-06-26T20:44:55.607Z,29.00
2019-06-26T20:47:59.431Z,28.94
2019-06-26T20:51:55.678Z,28.87
2019-06-26T20:54:14.326Z,28.83
2019-06-26T20:57:19.616Z,28.70
2019-06-26T21:00:26.645Z,28.54
2019-06-26T21:03:30.311Z,28.47
2019-06-26T21:06:33.967Z,28.41
2019-06-26T21:09:37.631Z,28.34
2019-06-26T21:12:42.578Z,28.24
2019-06-26T21:15:53.184Z,28.24
2019-06-26T21:18:56.208Z,28.23
2019-06-26T21:22:03.075Z,28.18
2019-06-26T21:25:18.266Z,27.91
2019-06-26T21:28:13.372Z,27.87
2019-06-26T21:31:17.007Z,27.80
2019-06-26T21:34:25.218Z,27.82
2019-06-26T21:37:28.845Z,27.64
2019-06-26T21:40:32.688Z,27.61
2019-06-26T21:43:36.367Z,27.54
2019-06-26T21:46:40.037Z,27.56
2019-06-26T21:49:47.434Z,27.53
2019-06-26T21:52:54.911Z,27.40
2019-06-26T21:56:07.076Z,27.44
2019-06-26T21:59:11.092Z,27.31
2019-06-26T22:02:14.935Z,27.31
2019-06-26T22:05:20.220Z,27.04
2019-06-26T22:08:25.878Z,26.88
2019-06-26T22:11:32.925Z,27.05
2019-06-26T22:14:36.633Z,26.93
2019-06-26T22:17:40.260Z,26.93
2019-06-26T22:20:45.642Z,26.93
2019-06-26T22:23:49.401Z,26.88
2019-06-26T22:27:06.375Z,26.81
2019-06-26T22:30:08.120Z,26.78
2019-06-26T22:33:11.912Z,26.62
2019-06-26T22:36:16.751Z,26.54
2019-06-26T22:39:20.405Z,26.46
2019-06-26T22:42:24.106Z,26.53
2019-06-26T22:45:27.715Z,26.43
2019-06-26T22:48:31.560Z,26.42
2019-06-26T22:51:35.311Z,26.24
2019-06-26T22:54:39.045Z,26.16
2019-06-26T22:57:42.744Z,26.03
2019-06-26T23:00:47.867Z,26.00
2019-06-26T23:03:51.718Z,25.94
2019-06-26T23:06:55.351Z,25.82
2019-06-26T23:09:59.018Z,25.84
2019-06-26T23:13:02.845Z,25.78
2019-06-26T23:16:06.595Z,25.65
2019-06-26T23:19:10.235Z,25.46
2019-06-26T23:22:13.874Z,25.52
2019-06-26T23:25:17.538Z,25.51
2019-06-26T23:28:21.181Z,25.25
2019-06-26T23:31:28.100Z,25.05
2019-06-26T23:34:37.859Z,25.22
2019-06-26T23:37:41.523Z,25.30
2019-06-26T23:40:45.188Z,25.16
2019-06-26T23:43:48.914Z,25.24
2019-06-26T23:46:52.583Z,25.03
2019-06-26T23:49:56.307Z,25.21
2019-06-26T23:52:59.964Z,24.90
2019-06-26T23:56:03.606Z,24.95
2019-06-26T23:59:07.282Z,24.91
